Accueil
METAR-TAF:

METAR-TAF

Aéroports :

Rarotonga, Îles Cook

Aéroport international de Rarotonga

latitude: 21-12S, longitude: 159-49W, altitude: 7 m

Observation

Le bulletin a été fait il y a 45 minutes, à 13:00 UTC
Vent 9 kt de est
Température 23°C
Humidité 73%
Pression 1016 hPa
Visibilité 10 km ou plus
Quelques nuages à une hauteur de 2300 ft

METAR: NCRG 211300Z 09009KT 9999 FEW023 23/18 Q1016

Heure: 03:45 (13:45 UTC)

Prévision

Le bulletin a été fait il y a 2 heures et 13 minutes, à 11:32 UTC
Prévision valable du 21 à 12 UTC au 22 à 12 UTC
Vent 13 kt de est
Visibilité 10 km ou plus
Nuages épars à une hauteur de 1700 ft
Nuages épars à une hauteur de 4000 ft

TAF: NCRG 211132Z 2112/2212 09013KT 9999 SCT017 SCT040

Observations et prévisions météorologiques de plus de 4000 aéroports (messages METAR et TAF).

Les stations disponibles sont représentées par des disques jaunes et rouges sur la carte.

Passer la souris dessus pour voir le nom de la station.

Cliquer dessus pour voir les observations et prévisions météorologiques.

Pour changer de carte: cliquez sur les boutons verts avec une croix noire pour zoomer, sur le bouton vert avec un tiret pour effectuer un zoom arrière, ou sur les flèches vertes pour les cartes adjacentes.


METAR-TAF: